Archerfield AIRPORT WEATHER FORECAST (YBAF)

METAR

METAR YBAF 230130Z AUTO 09009KT 9999 // SCT050 SCT057 SCT074 26/14 Q1015 RMK RF00.0/000.0

TAF

TAF YBAF 222230Z 2300/2312 11010KT 9999 SCT035 FM230900 15008KT 9999 FEW030 INTER 2300/2308 VRB15G25KT 4000 SHRA BKN015 RMK T 24 25 24 21 Q 1016 1015 1014 1015

QNH 

1015

Temperature & Dew Point

25° DP14